Time,TemperatureF,DewpointF,PressureIn,WindDirection,WindDirectionDegrees,WindSpeedMPH,WindSpeedGustMPH,Humidity,HourlyPrecipIn,Conditions,Clouds,dailyrainin,SoftwareType,DateUTC
2014-01-21 00:00:00,32.0,15.0,29.86,NW,320,23.0,25.0,49,-99.99,,,-99.99,,2014-01-21 05:00:00,
2014-01-21 00:42:00,32.0,15.0,29.86,NW,320,23.0,25.0,49,-99.99,,,-99.99,,2014-01-21 05:42:00,
2014-01-21 00:52:00,32.0,15.0,29.86,NW,320,23.0,25.0,49,-99.99,,,-99.99,,2014-01-21 05:52:00,
2014-01-21 01:00:00,30.0,13.0,29.89,NW,320,24.0,28.0,47,-99.99,,,-99.99,,2014-01-21 06:00:00,
2014-01-21 01:42:00,30.0,13.0,29.89,NW,320,24.0,28.0,47,-99.99,,,-99.99,,2014-01-21 06:42:00,
2014-01-21 01:52:00,30.0,13.0,29.89,NW,320,24.0,28.0,47,-99.99,,,-99.99,,2014-01-21 06:52:00,
2014-01-21 02:00:00,27.0,7.0,29.92,NNW,330,28.0,30.0,42,-99.99,,,-99.99,,2014-01-21 07:00:00,
2014-01-21 02:42:00,27.0,7.0,29.92,NNW,330,28.0,30.0,42,-99.99,,,-99.99,,2014-01-21 07:42:00,
2014-01-21 02:53:00,27.0,7.0,29.92,NNW,330,28.0,30.0,42,-99.99,,,-99.99,,2014-01-21 07:53:00,
2014-01-21 03:00:00,26.0,7.0,29.94,NNW,330,25.0,29.0,43,-99.99,,,-99.99,,2014-01-21 08:00:00,
2014-01-21 03:41:00,26.0,7.0,29.94,NNW,330,25.0,29.0,43,-99.99,,,-99.99,,2014-01-21 08:41:00,
2014-01-21 03:52:00,26.0,7.0,29.94,NNW,330,25.0,29.0,43,-99.99,,,-99.99,,2014-01-21 08:52:00,
2014-01-21 04:00:00,25.0,4.0,29.95,NNW,340,21.0,24.0,40,-99.99,,,-99.99,,2014-01-21 09:00:00,
2014-01-21 04:43:00,25.0,4.0,29.95,NNW,340,21.0,24.0,40,-99.99,,,-99.99,,2014-01-21 09:43:00,
2014-01-21 04:53:00,25.0,4.0,29.95,NNW,340,21.0,24.0,40,-99.99,,,-99.99,,2014-01-21 09:53:00,
2014-01-21 05:00:00,24.0,4.0,29.96,North,360,15.0,18.0,41,-99.99,,,-99.99,,2014-01-21 10:00:00,
2014-01-21 05:42:00,24.0,4.0,29.96,North,360,15.0,18.0,41,-99.99,,,-99.99,,2014-01-21 10:42:00,
2014-01-21 05:52:00,24.0,4.0,29.96,North,360,15.0,18.0,41,-99.99,,,-99.99,,2014-01-21 10:52:00,
2014-01-21 06:00:00,22.0,4.0,30.00,NNE,20,13.0,15.0,44,-99.99,,,-99.99,,2014-01-21 11:00:00,
2014-01-21 06:42:00,22.0,4.0,30.00,NNE,20,13.0,15.0,44,-99.99,,,-99.99,,2014-01-21 11:42:00,
2014-01-21 06:52:00,22.0,4.0,30.00,NNE,20,13.0,15.0,44,-99.99,,,-99.99,,2014-01-21 11:52:00,
2014-01-21 07:00:00,22.0,1.0,30.00,North,350,14.0,16.0,39,-99.99,,,-99.99,,2014-01-21 12:00:00,
2014-01-21 07:42:00,22.0,1.0,30.00,North,350,14.0,16.0,39,-99.99,,,-99.99,,2014-01-21 12:42:00,
2014-01-21 07:52:00,22.0,1.0,30.00,North,350,14.0,16.0,39,-99.99,,,-99.99,,2014-01-21 12:52:00,
2014-01-21 08:00:00,22.0,5.0,30.00,North,360,15.0,17.0,46,-99.99,,,-99.99,,2014-01-21 13:00:00,
2014-01-21 08:42:00,22.0,5.0,30.00,North,360,15.0,17.0,46,-99.99,,,-99.99,,2014-01-21 13:42:00,
2014-01-21 08:52:00,22.0,5.0,30.00,North,360,15.0,17.0,46,-99.99,,,-99.99,,2014-01-21 13:52:00,
2014-01-21 09:00:00,21.0,-1.0,30.00,NNE,20,15.0,17.0,36,-99.99,,,-99.99,,2014-01-21 14:00:00,
2014-01-21 09:41:00,21.0,-1.0,30.00,NNE,20,15.0,17.0,36,-99.99,,,-99.99,,2014-01-21 14:41:00,
2014-01-21 09:52:00,21.0,-1.0,30.00,NNE,20,15.0,17.0,36,-99.99,,,-99.99,,2014-01-21 14:52:00,
2014-01-21 10:00:00,22.0,3.0,30.03,North,360,8.0,10.0,43,-99.99,,,-99.99,,2014-01-21 15:00:00,
2014-01-21 10:42:00,22.0,3.0,30.03,North,360,8.0,10.0,43,-99.99,,,-99.99,,2014-01-21 15:42:00,
2014-01-21 10:53:00,22.0,3.0,30.03,North,360,8.0,10.0,43,-99.99,,,-99.99,,2014-01-21 15:53:00,
2014-01-21 11:00:00,22.0,8.0,30.02,NE,40,8.0,10.0,53,-99.99,,,-99.99,,2014-01-21 16:00:00,
2014-01-21 11:43:00,22.0,8.0,30.02,NE,40,8.0,10.0,53,-99.99,,,-99.99,,2014-01-21 16:43:00,
2014-01-21 11:52:00,22.0,8.0,30.02,NE,40,8.0,10.0,53,-99.99,,,-99.99,,2014-01-21 16:52:00,
2014-01-21 13:00:00,20.0,19.0,29.97,North,10,18.0,20.0,94,-99.99,,,-99.99,,2014-01-21 18:00:00,
2014-01-21 13:42:00,20.0,19.0,29.97,North,10,18.0,20.0,94,-99.99,,,-99.99,,2014-01-21 18:42:00,
2014-01-21 13:52:00,20.0,19.0,29.97,North,10,18.0,20.0,94,-99.99,,,-99.99,,2014-01-21 18:52:00,
2014-01-21 14:00:00,18.0,16.0,29.91,North,10,28.0,30.0,91,-99.99,,,-99.99,,2014-01-21 19:00:00,
2014-01-21 14:42:00,18.0,16.0,29.91,North,10,28.0,30.0,91,-99.99,,,-99.99,,2014-01-21 19:42:00,
2014-01-21 14:52:00,18.0,16.0,29.91,North,10,28.0,30.0,91,-99.99,,,-99.99,,2014-01-21 19:52:00,
2014-01-21 15:00:00,17.0,14.0,29.84,NNE,20,32.0,36.0,87,-99.99,,,-99.99,,2014-01-21 20:00:00,
2014-01-21 15:42:00,17.0,14.0,29.84,NNE,20,32.0,36.0,87,-99.99,,,-99.99,,2014-01-21 20:42:00,
2014-01-21 15:52:00,17.0,14.0,29.84,NNE,20,32.0,36.0,87,-99.99,,,-99.99,,2014-01-21 20:52:00,
2014-01-21 16:00:00,16.0,13.0,29.87,North,10,29.0,32.0,86,-99.99,,,-99.99,,2014-01-21 21:00:00,
2014-01-21 16:43:00,16.0,13.0,29.87,North,10,29.0,32.0,86,-99.99,,,-99.99,,2014-01-21 21:43:00,
2014-01-21 16:53:00,16.0,13.0,29.87,North,10,29.0,32.0,86,-99.99,,,-99.99,,2014-01-21 21:53:00,
2014-01-21 17:00:00,17.0,15.0,29.90,North,10,24.0,26.0,91,-99.99,,,-99.99,,2014-01-21 22:00:00,
2014-01-21 17:42:00,17.0,15.0,29.90,North,10,24.0,26.0,91,-99.99,,,-99.99,,2014-01-21 22:42:00,
2014-01-21 17:52:00,17.0,15.0,29.90,North,10,24.0,26.0,91,-99.99,,,-99.99,,2014-01-21 22:52:00,
2014-01-21 18:00:00,17.0,16.0,29.87,North,10,28.0,30.0,93,-99.99,,,-99.99,,2014-01-21 23:00:00,
2014-01-21 18:42:00,17.0,16.0,29.87,North,10,28.0,30.0,93,-99.99,,,-99.99,,2014-01-21 23:42:00,
2014-01-21 18:52:00,17.0,16.0,29.87,North,10,28.0,30.0,93,-99.99,,,-99.99,,2014-01-21 23:52:00,
2014-01-21 19:00:00,17.0,16.0,29.88,North,10,24.0,29.0,95,-99.99,,,-99.99,,2014-01-22 00:00:00,
2014-01-21 19:42:00,17.0,16.0,29.88,North,10,24.0,29.0,95,-99.99,,,-99.99,,2014-01-22 00:42:00,
2014-01-21 19:52:00,17.0,16.0,29.88,North,10,24.0,29.0,95,-99.99,,,-99.99,,2014-01-22 00:52:00,
2014-01-21 20:42:00,17.0,16.0,29.83,North,360,29.0,31.0,96,-99.99,,,-99.99,,2014-01-22 01:42:00,
2014-01-21 20:52:00,17.0,16.0,29.83,North,360,29.0,31.0,96,-99.99,,,-99.99,,2014-01-22 01:52:00,
2014-01-21 21:00:00,18.0,17.0,29.83,North,360,26.0,29.0,96,-99.99,,,-99.99,,2014-01-22 02:00:00,
2014-01-21 21:42:00,18.0,17.0,29.83,North,360,26.0,29.0,96,-99.99,,,-99.99,,2014-01-22 02:42:00,
2014-01-21 21:52:00,18.0,17.0,29.83,North,360,26.0,29.0,96,-99.99,,,-99.99,,2014-01-22 02:52:00,
2014-01-21 22:00:00,19.0,18.0,29.79,North,360,30.0,33.0,97,-99.99,,,-99.99,,2014-01-22 03:00:00,
2014-01-21 22:43:00,19.0,18.0,29.79,North,360,30.0,33.0,97,-99.99,,,-99.99,,2014-01-22 03:43:00,
2014-01-21 22:53:00,19.0,18.0,29.79,North,360,30.0,33.0,97,-99.99,,,-99.99,,2014-01-22 03:53:00,
2014-01-21 23:00:00,19.0,18.0,29.77,North,360,25.0,31.0,97,-99.99,,,-99.99,,2014-01-22 04:00:00,
2014-01-21 23:42:00,19.0,18.0,29.77,North,360,25.0,31.0,97,-99.99,,,-99.99,,2014-01-22 04:42:00,
2014-01-21 23:52:00,19.0,18.0,29.77,North,360,25.0,31.0,97,-99.99,,,-99.99,,2014-01-22 04:52:00,